Time;durP1;ratioP1;P1;durP2;ratioP2;P2;SDS_P1;SDS_P2;PMS_P1;PMS_P2;Temp;Humidity;BMP_temperature;BMP_pressure;BME280_temperature;BME280_humidity;BME280_pressure;Samples;Min_cycle;Max_cycle;Signal;HPM_P1;HPM_P2
2023/04/24 00:02:15;;;;;;;7.63;6.40;;;;;;;15.88;47.77;94378.63;5125637;27;20661;-46
2023/04/24 00:04:45;;;;;;;7.20;6.43;;;;;;;15.87;47.89;94375.25;5113434;27;20205;-47
2023/04/24 00:07:14;;;;;;;9.77;6.40;;;;;;;15.85;48.02;94361.75;5112989;28;20273;-47
2023/04/24 00:09:40;;;;;;;7.80;6.37;;;;;;;15.73;48.02;94348.47;5116731;27;20217;-47
2023/04/24 00:12:07;;;;;;;6.93;5.63;;;;;;;15.76;48.07;94355.88;5133930;27;20181;-47
2023/04/24 00:14:34;;;;;;;5.90;5.40;;;;;;;15.82;48.23;94359.50;5133967;27;20184;-47
2023/04/24 00:17:02;;;;;;;6.13;5.53;;;;;;;15.34;48.00;94281.69;5134280;27;20177;-48
2023/04/24 00:19:28;;;;;;;7.27;6.27;;;;;;;15.80;47.86;94358.88;5133495;27;20577;-47
2023/04/24 00:21:56;;;;;;;9.60;5.63;;;;;;;15.78;48.05;94358.25;5133663;27;20228;-48
2023/04/24 00:24:24;;;;;;;8.87;6.27;;;;;;;15.75;48.10;94356.81;5133136;27;20222;-48
2023/04/24 00:26:50;;;;;;;6.70;5.50;;;;;;;15.69;48.13;94354.19;5133709;27;20180;-47
2023/04/24 00:29:17;;;;;;;9.07;6.33;;;;;;;15.70;48.12;94361.72;5133468;27;20267;-47
2023/04/24 00:31:44;;;;;;;7.30;5.67;;;;;;;15.68;48.04;94366.25;5133284;27;20233;-47
2023/04/24 00:34:11;;;;;;;5.83;5.30;;;;;;;15.48;48.34;94340.16;5133373;27;20199;-48
2023/04/24 00:36:38;;;;;;;6.40;5.60;;;;;;;15.64;48.52;94367.59;5133589;27;20191;-48
2023/04/24 00:39:05;;;;;;;6.33;5.37;;;;;;;15.42;48.42;94325.41;5132846;27;20200;-47
2023/04/24 00:41:33;;;;;;;6.70;5.77;;;;;;;15.63;48.42;94358.25;5133195;27;20188;-47
2023/04/24 00:44:00;;;;;;;7.27;6.27;;;;;;;15.63;48.68;94353.09;5132838;27;20208;-47
2023/04/24 00:46:27;;;;;;;7.47;5.90;;;;;;;15.61;48.77;94352.44;5133326;27;20195;-47
2023/04/24 00:48:54;;;;;;;9.17;6.20;;;;;;;15.63;48.79;94352.25;5133247;27;20180;-47
2023/04/24 00:51:20;;;;;;;7.67;5.40;;;;;;;15.63;48.82;94347.09;5133269;27;20192;-47
2023/04/24 00:53:47;;;;;;;6.57;5.33;;;;;;;15.64;48.89;94356.47;5132771;27;20653;-47
2023/04/24 00:56:14;;;;;;;7.33;5.57;;;;;;;15.48;48.85;94335.00;5133121;27;20185;-48
2023/04/24 00:58:43;;;;;;;9.40;5.93;;;;;;;15.64;48.97;94359.88;5133567;27;20241;-46
2023/04/24 01:01:11;;;;;;;9.23;5.87;;;;;;;15.63;48.95;94352.25;5132664;27;20192;-46
2023/04/24 01:03:38;;;;;;;7.17;6.47;;;;;;;15.66;48.92;94355.31;5132723;27;20295;-48
2023/04/24 01:06:06;;;;;;;8.13;6.10;;;;;;;15.67;49.04;94354.38;5133001;27;20189;-47
2023/04/24 01:08:33;;;;;;;7.50;6.07;;;;;;;15.68;49.19;94342.28;5132339;27;20200;-47
2023/04/24 01:11:04;;;;;;;9.63;6.33;;;;;;;15.66;49.26;94333.91;5132086;27;20235;-47
2023/04/24 01:13:31;;;;;;;6.70;5.93;;;;;;;15.68;49.25;94342.28;5132600;27;20177;-47
2023/04/24 01:16:00;;;;;;;8.97;6.47;;;;;;;15.68;49.29;94330.19;5132921;27;20538;-48
2023/04/24 01:18:27;;;;;;;6.43;5.80;;;;;;;15.69;49.42;94334.34;5132557;27;20185;-46
2023/04/24 01:20:57;;;;;;;6.17;5.57;;;;;;;15.65;49.53;94322.78;5132556;27;20198;-48
2023/04/24 01:23:25;;;;;;;7.20;6.33;;;;;;;15.67;49.50;94320.03;5132227;27;20184;-48
2023/04/24 01:25:52;;;;;;;6.90;6.20;;;;;;;15.62;49.97;94312.00;5132237;27;20220;-46
2023/04/24 01:28:19;;;;;;;10.37;6.40;;;;;;;15.66;50.03;94319.22;5132520;27;20184;-47
2023/04/24 01:30:46;;;;;;;13.30;5.73;;;;;;;15.64;49.94;94326.34;5132007;27;20245;-47
2023/04/24 01:33:13;;;;;;;8.70;5.97;;;;;;;15.19;50.22;94255.09;5132705;27;20185;-47
2023/04/24 01:35:41;;;;;;;9.10;5.97;;;;;;;15.61;50.14;94325.88;5132705;27;20197;-47
2023/04/24 01:38:08;;;;;;;6.27;5.63;;;;;;;15.57;50.23;94313.31;5132036;27;20189;-47
2023/04/24 01:40:36;;;;;;;7.47;5.90;;;;;;;15.55;50.03;94325.59;5132772;27;20180;-47
2023/04/24 01:43:03;;;;;;;6.77;5.73;;;;;;;15.52;50.17;94320.00;5132061;27;20184;-48
2023/04/24 01:45:29;;;;;;;6.60;5.57;;;;;;;15.36;50.34;94296.97;5132386;27;20212;-48
2023/04/24 01:47:57;;;;;;;7.90;5.90;;;;;;;15.45;50.28;94319.91;5131616;27;20195;-48
2023/04/24 01:50:24;;;;;;;5.93;5.27;;;;;;;15.44;50.44;94317.50;5132536;27;20185;-47
2023/04/24 01:52:51;;;;;;;7.00;5.53;;;;;;;15.39;50.45;94312.09;5132064;27;20200;-48
2023/04/24 01:55:17;;;;;;;6.33;5.23;;;;;;;15.35;50.27;94314.22;5132517;27;20192;-46
2023/04/24 01:57:46;;;;;;;7.07;5.23;;;;;;;15.31;50.29;94311.19;5132007;27;20196;-48
2023/04/24 02:00:13;;;;;;;7.67;5.50;;;;;;;15.27;50.26;94322.81;5132085;27;20177;-48
2023/04/24 02:02:41;;;;;;;4.77;4.27;;;;;;;15.24;50.63;94325.75;5131348;27;20184;-47
2023/04/24 02:05:08;;;;;;;6.40;4.80;;;;;;;15.20;50.26;94313.41;5132056;27;20209;-47
2023/04/24 02:07:35;;;;;;;4.83;4.07;;;;;;;15.15;50.46;94316.47;5131164;27;20244;-46
2023/04/24 02:10:02;;;;;;;5.33;4.83;;;;;;;15.09;50.60;94311.25;5131717;27;20185;-48
2023/04/24 02:12:28;;;;;;;6.90;4.70;;;;;;;15.10;50.53;94316.19;5131749;27;20192;-48
2023/04/24 02:14:57;;;;;;;7.33;5.13;;;;;;;15.06;50.57;94320.09;5131431;27;20189;-47
2023/04/24 02:17:23;;;;;;;6.47;5.43;;;;;;;15.02;50.62;94324.78;5131352;27;20188;-46
2023/04/24 02:19:50;;;;;;;5.43;4.80;;;;;;;15.00;50.91;94318.22;5131271;27;20628;-46
2023/04/24 02:22:17;;;;;;;5.60;4.67;;;;;;;14.95;51.00;94317.97;5130740;27;20284;-47
2023/04/24 02:24:44;;;;;;;8.47;5.07;;;;;;;14.94;51.06;94314.59;5130952;27;20216;-47
2023/04/24 02:27:11;;;;;;;8.03;4.77;;;;;;;14.90;51.28;94305.59;5131401;27;20226;-46
2023/04/24 02:29:38;;;;;;;5.27;4.77;;;;;;;14.73;51.26;94281.78;5131268;27;20176;-47
2023/04/24 02:32:06;;;;;;;5.83;4.50;;;;;;;14.85;51.32;94301.94;5131052;27;20192;-47
2023/04/24 02:34:33;;;;;;;5.47;4.50;;;;;;;14.80;51.44;94300.66;5131148;27;20282;-46
2023/04/24 02:37:00;;;;;;;7.77;4.60;;;;;;;14.76;51.41;94296.84;5130801;27;20188;-46
2023/04/24 02:39:26;;;;;;;5.07;4.37;;;;;;;14.76;51.56;94286.53;5131153;27;20328;-47
2023/04/24 02:41:53;;;;;;;5.17;4.67;;;;;;;14.75;51.64;94294.44;5131128;27;20255;-47
2023/04/24 02:44:21;;;;;;;8.27;4.70;;;;;;;14.72;51.61;94284.50;5130909;27;20580;-47
2023/04/24 02:46:48;;;;;;;5.60;4.20;;;;;;;14.68;51.67;94276.34;5131302;27;20706;-47
2023/04/24 02:49:16;;;;;;;5.70;4.97;;;;;;;14.68;51.93;94278.91;5132683;27;20184;-46
2023/04/24 02:51:43;;;;;;;4.80;4.30;;;;;;;14.64;51.82;94276.88;5130599;27;20192;-45
2023/04/24 02:54:10;;;;;;;9.47;4.77;;;;;;;14.66;52.07;94274.91;5130691;27;20253;-47
2023/04/24 02:56:36;;;;;;;8.13;4.80;;;;;;;14.63;52.15;94283.75;5130683;27;20268;-47
2023/04/24 02:59:03;;;;;;;5.67;4.83;;;;;;;14.62;52.14;94283.94;5130763;27;20196;-46
2023/04/24 03:01:30;;;;;;;5.53;5.00;;;;;;;14.59;52.34;94279.94;5130308;27;20657;-46
2023/04/24 03:03:57;;;;;;;4.70;4.20;;;;;;;14.58;52.15;94291.19;5130626;27;20192;-47
2023/04/24 03:06:26;;;;;;;7.60;4.70;;;;;;;14.40;52.28;94270.06;5129990;27;20654;-47
2023/04/24 03:08:53;;;;;;;6.67;4.77;;;;;;;14.55;52.20;94286.41;5130542;27;20188;-47
2023/04/24 03:11:20;;;;;;;5.23;4.73;;;;;;;14.52;52.36;94292.69;5130376;27;20251;-46
2023/04/24 03:13:47;;;;;;;7.37;4.93;;;;;;;14.51;52.44;94293.66;5130608;27;20271;-48
2023/04/24 03:16:13;;;;;;;7.17;4.53;;;;;;;14.49;52.63;94290.44;5130377;27;20263;-46
2023/04/24 03:18:40;;;;;;;5.30;4.80;;;;;;;14.47;52.77;94300.09;5130631;27;20192;-46
2023/04/24 03:21:07;;;;;;;5.87;4.40;;;;;;;14.47;52.78;94304.44;5130009;27;20633;-48
2023/04/24 03:23:35;;;;;;;6.77;4.90;;;;;;;14.44;52.93;94294.50;5130022;27;20188;-47
2023/04/24 03:26:02;;;;;;;6.13;4.83;;;;;;;14.44;52.83;94295.28;5129951;27;20215;-48
2023/04/24 03:28:29;;;;;;;5.30;4.80;;;;;;;14.45;53.11;94299.44;5130198;27;20192;-48
2023/04/24 03:30:55;;;;;;;5.97;4.90;;;;;;;14.45;52.81;94296.88;5130322;27;20196;-54
2023/04/24 03:33:22;;;;;;;6.33;4.70;;;;;;;14.45;53.05;94285.78;5130137;27;20195;-49
2023/04/24 03:35:49;;;;;;;5.97;5.00;;;;;;;14.48;52.86;94296.56;5129901;27;20237;-46
2023/04/24 03:38:16;;;;;;;5.53;4.73;;;;;;;14.50;53.12;94302.34;5130264;28;20249;-46
2023/04/24 03:40:44;;;;;;;10.27;4.97;;;;;;;14.52;53.41;94295.25;5130410;28;20193;-47
2023/04/24 03:43:10;;;;;;;7.67;4.87;;;;;;;14.54;53.09;94295.88;5130000;28;20184;-48
2023/04/24 03:45:37;;;;;;;8.50;5.17;;;;;;;14.58;53.17;94298.91;5130081;28;20238;-49
2023/04/24 03:48:04;;;;;;;6.90;5.13;;;;;;;14.62;53.19;94296.81;5130146;28;20188;-47
2023/04/24 03:50:31;;;;;;;14.60;5.87;;;;;;;14.62;53.07;94283.94;5130062;28;20180;-48
2023/04/24 03:52:58;;;;;;;7.63;5.00;;;;;;;14.68;53.18;94296.94;5130042;27;20683;-49
2023/04/24 03:55:24;;;;;;;8.27;5.00;;;;;;;14.76;53.09;94298.63;5131179;27;20687;-47
2023/04/24 03:57:52;;;;;;;5.50;4.80;;;;;;;14.80;52.92;94298.09;5131718;27;20660;-49
2023/04/24 04:00:20;;;;;;;5.83;4.90;;;;;;;14.84;52.97;94301.13;5129957;27;20188;-48
2023/04/24 04:02:47;;;;;;;7.83;5.23;;;;;;;14.91;52.88;94294.31;5129515;27;20276;-48
2023/04/24 04:05:14;;;;;;;5.83;5.23;;;;;;;14.97;52.70;94297.97;5129227;27;20197;-47
2023/04/24 04:07:41;;;;;;;5.60;5.00;;;;;;;15.06;52.80;94304.66;5129958;27;20272;-49
2023/04/24 04:10:08;;;;;;;9.40;5.73;;;;;;;15.12;52.64;94298.81;5129266;28;20695;-48
2023/04/24 04:12:35;;;;;;;7.40;5.27;;;;;;;15.11;52.40;94289.50;5129774;28;20180;-47
2023/04/24 04:15:04;;;;;;;8.63;5.37;;;;;;;15.24;52.48;94288.88;5129930;27;20613;-47
2023/04/24 04:17:31;;;;;;;6.33;5.60;;;;;;;15.29;52.30;94289.16;5129713;28;20219;-47
2023/04/24 04:19:57;;;;;;;8.40;4.87;;;;;;;15.20;52.32;94264.47;5127109;27;20618;-46
2023/04/24 04:22:24;;;;;;;7.50;5.83;;;;;;;15.44;52.01;94295.09;5127660;28;20227;-48
2023/04/24 04:24:51;;;;;;;5.63;4.80;;;;;;;15.51;52.03;94300.38;5128754;27;20280;-47
2023/04/24 04:27:18;;;;;;;8.10;5.60;;;;;;;15.55;51.87;94293.88;5129839;28;20180;-47
2023/04/24 04:29:45;;;;;;;12.60;5.30;;;;;;;15.64;51.89;94305.72;5129477;27;20184;-48
2023/04/24 04:32:13;;;;;;;7.30;5.00;;;;;;;15.70;51.66;94310.16;5129320;28;20701;-48
2023/04/24 04:34:40;;;;;;;8.23;4.00;;;;;;;16.15;77.84;94302.38;5129660;28;20181;-46
2023/04/24 04:37:07;;;;;;;7.90;4.00;;;;;;;16.83;78.27;94318.38;5128998;27;20192;-47
2023/04/24 04:39:34;;;;;;;8.77;4.03;;;;;;;17.44;75.82;94318.66;5129649;27;20188;-48
2023/04/24 04:42:00;;;;;;;8.07;5.63;;;;;;;17.82;71.57;94321.69;5129742;27;20187;-48
2023/04/24 04:44:28;;;;;;;9.47;5.10;;;;;;;17.95;67.75;94329.53;5132178;27;20207;-48
2023/04/24 04:46:56;;;;;;;8.20;5.37;;;;;;;18.00;65.47;94329.78;5134196;27;20224;-49
2023/04/24 04:49:24;;;;;;;8.37;5.30;;;;;;;18.03;63.81;94326.78;5134548;27;20613;-48
2023/04/24 04:51:51;;;;;;;7.97;4.67;;;;;;;18.06;62.55;94330.78;5133479;27;20185;-49
2023/04/24 04:54:18;;;;;;;7.57;5.10;;;;;;;18.07;61.30;94336.75;5132637;27;20220;-48
2023/04/24 04:56:45;;;;;;;8.53;4.83;;;;;;;18.05;60.45;94332.56;5132711;27;20199;-48
2023/04/24 04:59:12;;;;;;;6.20;4.50;;;;;;;18.00;59.55;94329.78;5133319;27;20176;-46
2023/04/24 05:01:40;;;;;;;8.53;5.67;;;;;;;18.02;59.09;94329.56;5132215;27;20621;-49
2023/04/24 05:04:06;;;;;;;6.47;4.80;;;;;;;17.92;58.45;94319.59;5132542;27;20172;-51
2023/04/24 05:06:34;;;;;;;7.93;5.30;;;;;;;18.06;58.02;94338.56;5139508;27;20222;-51
2023/04/24 05:09:03;;;;;;;10.53;5.70;;;;;;;18.08;57.50;94341.72;5153333;27;20198;-49
2023/04/24 05:11:30;;;;;;;8.97;5.20;;;;;;;17.99;56.86;94319.59;5139751;27;20267;-48
2023/04/24 05:13:57;;;;;;;5.67;4.47;;;;;;;18.10;56.36;94328.63;5132867;27;20265;-49
2023/04/24 05:16:23;;;;;;;6.97;4.90;;;;;;;18.09;55.73;94330.41;5132985;27;20189;-47
2023/04/24 05:18:50;;;;;;;12.43;4.90;;;;;;;18.09;55.31;94325.22;5132628;27;20568;-48
2023/04/24 05:21:17;;;;;;;5.93;4.00;;;;;;;18.04;54.69;94330.97;5132880;27;20223;-46
2023/04/24 05:23:45;;;;;;;6.60;4.53;;;;;;;18.12;54.41;94334.38;5131916;27;20195;-48
2023/04/24 05:26:12;;;;;;;5.13;4.07;;;;;;;18.16;53.96;94333.00;5131760;27;20212;-46
2023/04/24 05:28:39;;;;;;;7.13;4.30;;;;;;;18.19;53.48;94324.88;5125739;27;20196;-47
2023/04/24 05:31:06;;;;;;;13.47;4.77;;;;;;;18.27;52.91;94327.28;5130695;27;20188;-46
2023/04/24 05:33:33;;;;;;;5.73;4.50;;;;;;;18.32;52.57;94321.53;5131155;27;20188;-46
2023/04/24 05:35:59;;;;;;;4.63;4.23;;;;;;;18.27;52.21;94299.63;5131189;27;20248;-46
2023/04/24 05:38:26;;;;;;;6.37;4.17;;;;;;;18.60;51.69;94331.75;5130429;27;20248;-48
2023/04/24 05:40:54;;;;;;;7.63;4.60;;;;;;;18.80;51.38;94332.63;5130591;27;20184;-49
2023/04/24 05:43:22;;;;;;;5.00;4.07;;;;;;;18.94;51.00;94338.63;5130622;27;20195;-47
2023/04/24 05:45:51;;;;;;;11.40;4.10;;;;;;;19.11;50.69;94341.63;5134647;27;20255;-46
2023/04/24 05:48:17;;;;;;;6.93;4.13;;;;;;;19.29;50.46;94336.66;5132035;27;20188;-46
2023/04/24 05:50:44;;;;;;;11.67;4.23;;;;;;;19.52;49.98;94341.44;5132180;27;20189;-49
2023/04/24 05:53:11;;;;;;;4.30;3.70;;;;;;;19.87;49.50;94336.81;5130954;27;20256;-48
2023/04/24 05:55:38;;;;;;;9.43;4.17;;;;;;;20.28;49.09;94333.06;5130554;27;20295;-48
2023/04/24 05:58:06;;;;;;;4.37;3.97;;;;;;;20.68;48.55;94327.69;5131586;27;20649;-49
2023/04/24 06:00:33;;;;;;;4.60;3.60;;;;;;;20.89;47.98;94298.78;5131377;27;20733;-47
2023/04/24 06:03:00;;;;;;;4.87;4.37;;;;;;;21.46;47.92;94317.78;5131478;27;20200;-47
2023/04/24 06:05:27;;;;;;;6.37;3.43;;;;;;;22.17;47.29;94332.09;5131140;27;20291;-47
2023/04/24 06:07:54;;;;;;;5.80;3.70;;;;;;;22.70;46.41;94330.63;5131069;27;20184;-48
2023/04/24 06:10:21;;;;;;;5.47;3.90;;;;;;;23.17;45.93;94338.63;5131046;27;20216;-46
2023/04/24 06:12:48;;;;;;;6.03;3.72;;;;;;;23.55;45.06;94333.00;5130876;27;20203;-46
2023/04/24 06:15:16;;;;;;;6.28;3.53;;;;;;;24.04;44.91;94330.94;5130032;27;20658;-47
2023/04/24 06:17:43;;;;;;;8.38;4.20;;;;;;;24.70;44.08;94334.88;5130691;27;20195;-47
2023/04/24 06:20:11;;;;;;;6.85;3.72;;;;;;;25.38;43.69;94337.59;5130228;27;20188;-47
2023/04/24 06:22:39;;;;;;;4.43;3.72;;;;;;;26.09;42.99;94337.88;5127052;27;20219;-48
2023/04/24 06:25:07;;;;;;;5.93;4.18;;;;;;;26.71;42.28;94337.56;5127742;27;20550;-48
2023/04/24 06:27:34;;;;;;;5.70;3.63;;;;;;;27.15;40.87;94334.84;5127732;27;21053;-47
2023/04/24 06:30:00;;;;;;;11.05;4.00;;;;;;;27.43;41.64;94336.41;5127818;27;20568;-46
2023/04/24 06:32:30;;;;;;;10.73;4.15;;;;;;;27.64;42.20;94332.88;5127396;27;20196;-48
2023/04/24 06:34:57;;;;;;;6.88;4.65;;;;;;;27.70;41.63;94328.44;5125076;27;20195;-48
2023/04/24 06:37:24;;;;;;;13.00;4.93;;;;;;;27.66;41.06;94330.00;5127631;27;20192;-48
2023/04/24 06:39:51;;;;;;;11.18;5.40;;;;;;;27.54;40.21;94313.63;5127524;27;20224;-47
2023/04/24 06:42:20;;;;;;;12.88;5.63;;;;;;;27.50;39.00;94339.59;5127761;27;20690;-49
2023/04/24 06:44:47;;;;;;;5.93;5.03;;;;;;;27.31;38.41;94339.19;5127505;27;20320;-46
2023/04/24 06:47:15;;;;;;;7.75;4.78;;;;;;;27.21;37.04;94339.91;5127354;27;20259;-48
2023/04/24 06:49:43;;;;;;;12.48;4.75;;;;;;;27.35;36.54;94348.16;5128102;27;20279;-48
2023/04/24 06:52:10;;;;;;;5.38;4.03;;;;;;;27.64;36.57;94345.22;5127704;27;20544;-46
2023/04/24 06:54:43;;;;;;;7.90;5.22;;;;;;;27.95;36.85;94335.72;5128451;27;20894;-48
2023/04/24 06:57:12;;;;;;;6.15;4.40;;;;;;;28.26;37.40;94329.56;5127936;27;20211;-46
2023/04/24 06:59:39;;;;;;;11.52;4.40;;;;;;;28.55;37.32;94329.19;5128356;27;20283;-47
2023/04/24 07:02:06;;;;;;;7.80;4.55;;;;;;;28.85;37.29;94319.78;5127645;27;20195;-47
2023/04/24 07:04:33;;;;;;;5.32;4.30;;;;;;;29.08;37.02;94323.78;5126624;27;20188;-48
2023/04/24 07:07:02;;;;;;;8.45;4.55;;;;;;;29.32;37.01;94324.03;5126603;27;20208;-47
2023/04/24 07:09:29;;;;;;;6.88;4.53;;;;;;;29.56;36.60;94322.50;5127000;27;20199;-47
2023/04/24 07:11:57;;;;;;;5.28;4.28;;;;;;;29.77;36.87;94331.16;5127128;27;20636;-47
2023/04/24 07:14:24;;;;;;;6.50;4.47;;;;;;;29.95;36.60;94321.91;5127136;27;20562;-48
2023/04/24 07:16:50;;;;;;;5.85;4.30;;;;;;;30.11;36.39;94326.06;5127352;27;20184;-49
2023/04/24 07:19:17;;;;;;;7.55;4.38;;;;;;;30.29;35.98;94326.56;5126655;27;20196;-49
2023/04/24 07:21:44;;;;;;;7.25;4.35;;;;;;;30.46;36.14;94321.75;5126501;27;20617;-47
2023/04/24 07:24:13;;;;;;;6.20;4.00;;;;;;;30.59;35.93;94315.88;5126187;27;20741;-48
2023/04/24 07:26:40;;;;;;;4.43;3.72;;;;;;;30.77;35.94;94317.13;5126279;27;20595;-45
2023/04/24 07:29:06;;;;;;;6.32;4.18;;;;;;;30.90;35.92;94315.72;5126654;27;20693;-47
2023/04/24 07:31:33;;;;;;;10.65;4.55;;;;;;;30.99;35.38;94312.22;5127026;27;20199;-47
2023/04/24 07:34:00;;;;;;;5.72;4.68;;;;;;;31.08;35.43;94309.00;5126757;27;20236;-51
2023/04/24 07:36:27;;;;;;;6.57;4.15;;;;;;;31.14;35.05;94310.56;5127652;27;20192;-50
2023/04/24 07:38:55;;;;;;;5.43;4.40;;;;;;;31.14;35.23;94310.56;5130072;27;20199;-46
2023/04/24 07:41:24;;;;;;;6.15;3.75;;;;;;;31.22;35.08;94309.97;5130386;27;20215;-46
2023/04/24 07:43:51;;;;;;;5.78;3.58;;;;;;;31.25;35.38;94306.75;5128828;27;20184;-48
2023/04/24 07:46:17;;;;;;;4.63;4.20;;;;;;;31.29;34.86;94299.88;5130556;28;20257;-46
2023/04/24 07:48:46;;;;;;;4.85;3.92;;;;;;;31.35;34.74;94301.44;5130939;28;20565;-51
2023/04/24 07:51:13;;;;;;;5.05;4.22;;;;;;;31.38;34.72;94300.88;5129311;28;20661;-48
2023/04/24 07:53:40;;;;;;;7.90;4.15;;;;;;;31.40;34.57;94298.75;5127813;27;20188;-48
2023/04/24 07:56:07;;;;;;;4.20;3.85;;;;;;;31.43;34.45;94294.75;5125932;28;20188;-47
2023/04/24 07:58:35;;;;;;;4.90;4.40;;;;;;;31.45;34.57;94295.25;5127011;28;20200;-46
2023/04/24 08:01:02;;;;;;;5.25;3.67;;;;;;;31.45;34.60;94300.56;5126119;28;20181;-49
2023/04/24 08:03:29;;;;;;;6.13;4.70;;;;;;;31.43;34.70;94298.19;5126619;28;20191;-48
2023/04/24 08:05:56;;;;;;;7.18;3.95;;;;;;;31.43;34.52;94292.09;5126832;28;20259;-46
2023/04/24 08:08:23;;;;;;;4.82;3.72;;;;;;;31.42;34.61;94285.25;5126684;28;20188;-48
2023/04/24 08:10:50;;;;;;;5.03;3.88;;;;;;;31.40;34.64;94284.75;5126586;28;20189;-48
2023/04/24 08:13:17;;;;;;;5.72;4.10;;;;;;;31.37;34.35;94296.66;5126022;28;20569;-48
2023/04/24 08:15:45;;;;;;;4.68;4.20;;;;;;;31.30;34.62;94275.03;5126769;27;20193;-49
2023/04/24 08:18:13;;;;;;;5.07;3.70;;;;;;;31.28;34.69;94284.28;5126317;27;20188;-45
2023/04/24 08:20:40;;;;;;;5.45;3.67;;;;;;;31.25;34.54;94285.63;5130407;27;20190;-46
2023/04/24 08:23:07;;;;;;;6.63;4.72;;;;;;;31.19;34.57;94279.59;5130145;27;20228;-47
2023/04/24 08:25:35;;;;;;;4.35;3.85;;;;;;;31.11;34.83;94277.53;5131966;27;20192;-47
2023/04/24 08:28:03;;;;;;;4.53;4.13;;;;;;;31.01;34.91;94267.06;5130167;27;20224;-46
2023/04/24 08:30:30;;;;;;;7.18;3.58;;;;;;;31.01;35.02;94272.34;5130365;27;20228;-48
2023/04/24 08:32:59;;;;;;;7.13;4.70;;;;;;;30.84;34.72;94256.09;5129777;27;20241;-48
2023/04/24 08:35:26;;;;;;;8.35;3.95;;;;;;;30.90;34.95;94263.69;5131275;27;20260;-47
2023/04/24 08:37:53;;;;;;;5.28;3.85;;;;;;;30.84;34.99;94267.44;5130333;27;20567;-49
2023/04/24 08:40:28;;;;;;;4.32;3.92;;;;;;;30.75;35.01;94265.66;5130028;27;20314;-48
2023/04/24 08:42:57;;;;;;;10.27;4.07;;;;;;;30.64;34.90;94252.47;5129703;27;20275;-48
2023/04/24 08:45:25;;;;;;;3.90;3.50;;;;;;;30.56;35.11;94252.28;5129863;27;20665;-49
2023/04/24 08:47:53;;;;;;;3.88;3.50;;;;;;;30.46;35.71;94253.13;5129634;27;20246;-49
2023/04/24 08:50:21;;;;;;;7.55;4.55;;;;;;;30.37;35.24;94250.28;5129839;27;20188;-46
2023/04/24 08:52:50;;;;;;;6.60;4.15;;;;;;;30.17;35.86;94232.69;5130826;27;20191;-49
2023/04/24 08:55:18;;;;;;;4.30;3.95;;;;;;;30.16;35.32;94248.78;5130082;27;20280;-50
2023/04/24 08:57:48;;;;;;;4.22;3.78;;;;;;;30.09;35.83;94237.72;5129571;27;20276;-48
2023/04/24 09:00:15;;;;;;;4.15;3.80;;;;;;;30.00;36.13;94240.91;5129437;27;20200;-46
2023/04/24 09:02:44;;;;;;;4.05;3.53;;;;;;;29.90;35.97;94235.69;5129359;27;20676;-49
2023/04/24 09:05:11;;;;;;;3.85;3.40;;;;;;;29.82;35.76;94230.97;5129454;27;20235;-47
2023/04/24 09:07:43;;;;;;;5.53;3.85;;;;;;;29.76;35.95;94229.41;5131266;27;20215;-48
2023/04/24 09:10:11;;;;;;;4.10;3.80;;;;;;;29.68;36.08;94227.31;5129656;27;20196;-47
2023/04/24 09:12:38;;;;;;;4.20;3.80;;;;;;;29.57;36.22;94217.84;5128923;27;20176;-47
2023/04/24 09:15:08;;;;;;;3.95;3.55;;;;;;;29.35;36.50;94218.94;5129400;27;20191;-48
2023/04/24 09:17:35;;;;;;;7.13;4.13;;;;;;;29.16;36.54;94216.06;5129218;27;20184;-50
2023/04/24 09:20:02;;;;;;;4.85;3.75;;;;;;;29.03;36.73;94208.72;5128732;27;20196;-48
2023/04/24 09:22:31;;;;;;;5.60;3.97;;;;;;;28.82;36.70;94183.41;5129231;27;20255;-46
2023/04/24 09:25:05;;;;;;;5.30;4.25;;;;;;;28.92;36.93;94201.81;5127556;27;20264;-46
2023/04/24 09:27:32;;;;;;;6.88;3.80;;;;;;;28.91;36.69;94202.88;5129280;27;20288;-48
2023/04/24 09:29:59;;;;;;;5.28;4.10;;;;;;;28.99;36.42;94202.38;5128130;27;20191;-47
2023/04/24 09:32:27;;;;;;;5.20;3.38;;;;;;;29.10;35.55;94198.72;5129895;27;20203;-48
2023/04/24 09:35:10;;;;;;;4.38;3.60;;;;;;;29.18;35.74;94202.63;5128734;27;20649;-46
2023/04/24 09:37:38;;;;;;;5.75;3.47;;;;;;;29.22;35.34;94201.81;5131751;27;20196;-51
2023/04/24 09:40:12;;;;;;;4.53;3.60;;;;;;;29.25;35.22;94201.31;5132664;27;20660;-51
2023/04/24 09:42:39;;;;;;;5.57;3.83;;;;;;;29.30;34.91;94199.72;5130173;27;20818;-47
2023/04/24 09:45:10;;;;;;;4.55;3.55;;;;;;;29.32;35.15;94198.41;5131185;27;20196;-46
2023/04/24 09:47:38;;;;;;;3.75;3.13;;;;;;;29.37;34.60;94202.88;5131182;27;20240;-49
2023/04/24 09:50:11;;;;;;;4.93;3.95;;;;;;;29.43;34.76;94193.88;5130595;27;20576;-47
2023/04/24 09:52:41;;;;;;;5.07;3.45;;;;;;;29.50;34.17;94189.13;5130922;27;20184;-49
2023/04/24 09:55:17;;;;;;;6.80;3.50;;;;;;;28.86;34.29;94076.53;5130572;27;20275;-48
2023/04/24 09:57:52;;;;;;;4.18;3.60;;;;;;;29.57;34.37;94181.75;5131163;27;20504;-46
2023/04/24 10:00:20;;;;;;;4.53;4.13;;;;;;;29.59;34.00;94182.28;5130705;27;20285;-46
2023/04/24 10:02:52;;;;;;;6.07;3.78;;;;;;;29.57;34.03;94173.84;5131765;27;20191;-46
2023/04/24 10:05:19;;;;;;;7.22;4.07;;;;;;;29.57;33.73;94171.22;5131533;27;20543;-47
2023/04/24 10:07:46;;;;;;;4.30;3.63;;;;;;;29.53;34.24;94166.72;5130608;27;20688;-47
2023/04/24 10:10:14;;;;;;;6.00;3.85;;;;;;;29.49;34.01;94159.38;5130173;27;20201;-47
2023/04/24 10:12:41;;;;;;;6.15;4.10;;;;;;;29.45;33.52;94154.91;5130795;27;20202;-48
2023/04/24 10:15:13;;;;;;;5.78;3.92;;;;;;;29.38;33.58;94149.91;5130328;27;20185;-48
2023/04/24 10:17:41;;;;;;;5.97;4.00;;;;;;;29.34;33.54;94135.69;5128184;27;20192;-48
2023/04/24 10:20:09;;;;;;;5.00;3.20;;;;;;;29.24;33.94;94136.53;5130604;27;20623;-47
2023/04/24 10:22:37;;;;;;;3.85;3.55;;;;;;;29.10;33.55;94129.44;5127603;27;20228;-48
2023/04/24 10:25:06;;;;;;;3.90;3.60;;;;;;;29.00;34.03;94135.50;5130129;27;20193;-48
2023/04/24 10:27:36;;;;;;;4.95;3.65;;;;;;;28.95;33.46;94124.97;5130207;27;20249;-49
2023/04/24 10:30:03;;;;;;;8.15;3.88;;;;;;;28.83;33.58;94121.81;5129317;27;20569;-51
2023/04/24 10:32:30;;;;;;;6.75;3.65;;;;;;;28.84;33.55;94123.38;5130035;27;20227;-46
2023/04/24 10:34:57;;;;;;;4.38;3.20;;;;;;;28.86;33.34;94129.19;5129812;27;20217;-47
2023/04/24 10:37:28;;;;;;;6.47;4.03;;;;;;;28.79;33.67;94121.56;5130038;27;20434;-48
2023/04/24 10:39:56;;;;;;;4.55;3.50;;;;;;;28.74;33.45;94121.56;5129438;27;20204;-49
2023/04/24 10:42:23;;;;;;;5.78;3.55;;;;;;;28.80;33.08;94109.19;5130138;27;20215;-49
2023/04/24 10:44:51;;;;;;;3.30;3.10;;;;;;;28.91;33.45;94108.91;5128226;27;20188;-48
2023/04/24 10:47:18;;;;;;;5.55;3.83;;;;;;;29.01;33.18;94102.84;5129679;27;20352;-47
2023/04/24 10:49:45;;;;;;;4.22;3.38;;;;;;;29.15;33.00;94108.38;5129904;27;20214;-48
2023/04/24 10:52:12;;;;;;;5.95;3.72;;;;;;;29.29;32.64;94106.75;5129458;27;20204;-48
2023/04/24 10:54:43;;;;;;;3.30;3.00;;;;;;;29.39;32.95;94098.00;5129325;27;20628;-50
2023/04/24 10:57:30;;;;;;;4.38;3.22;;;;;;;29.28;32.95;94076.19;5129582;27;20676;-48
2023/04/24 11:00:20;;;;;;;3.95;3.22;;;;;;;29.29;32.63;94098.84;5126583;27;20196;-48
2023/04/24 11:02:52;;;;;;;5.25;3.65;;;;;;;29.14;32.88;94093.59;5127175;27;20198;-47
2023/04/24 11:05:20;;;;;;;5.25;3.60;;;;;;;28.69;33.34;94042.63;5127117;27;20271;-47
2023/04/24 11:08:12;;;;;;;5.15;3.40;;;;;;;28.87;33.21;94099.16;5126466;27;20222;-49
2023/04/24 11:10:41;;;;;;;4.68;3.38;;;;;;;28.71;32.98;94093.94;5124923;27;20196;-48
2023/04/24 11:13:09;;;;;;;3.10;2.85;;;;;;;28.53;33.41;94102.38;5126334;27;20271;-47
2023/04/24 11:15:37;;;;;;;6.85;3.42;;;;;;;28.31;33.05;94118.38;5127150;27;20284;-46
2023/04/24 11:18:04;;;;;;;3.38;3.08;;;;;;;28.08;33.23;94137.28;5127319;27;20203;-48
2023/04/24 11:20:31;;;;;;;3.60;3.25;;;;;;;27.80;33.74;94135.91;5126762;27;20195;-46
2023/04/24 11:23:06;;;;;;;4.28;3.20;;;;;;;27.48;33.69;94170.97;5126570;27;20247;-48
2023/04/24 11:25:33;;;;;;;3.47;3.17;;;;;;;27.22;34.36;94164.78;5126479;27;20195;-49
2023/04/24 11:28:05;;;;;;;4.35;3.33;;;;;;;27.05;34.62;94156.25;5126370;27;20299;-48
2023/04/24 11:30:35;;;;;;;3.38;3.08;;;;;;;26.94;34.78;94155.38;5126742;27;20189;-49
2023/04/24 11:33:06;;;;;;;3.67;3.03;;;;;;;26.84;35.37;94155.31;5127016;27;20188;-47
2023/04/24 11:35:37;;;;;;;3.63;3.13;;;;;;;26.76;35.17;94146.06;5124107;27;20566;-48